sensor_id;sensor_type;location;lat;lon;timestamp;P1;durP1;ratioP1;P2;durP2;ratioP2
67816;SDS011;54614;47.576;7.524;2023-02-15T00:01:50;4.05;;;2.70;;
67816;SDS011;54614;47.576;7.524;2023-02-15T00:04:18;4.68;;;2.60;;
67816;SDS011;54614;47.576;7.524;2023-02-15T00:06:47;3.75;;;2.63;;
67816;SDS011;54614;47.576;7.524;2023-02-15T00:09:13;5.07;;;2.65;;
67816;SDS011;54614;47.576;7.524;2023-02-15T00:11:40;6.55;;;2.67;;
67816;SDS011;54614;47.576;7.524;2023-02-15T00:14:19;4.03;;;2.72;;
67816;SDS011;54614;47.576;7.524;2023-02-15T00:16:50;4.82;;;2.67;;
67816;SDS011;54614;47.576;7.524;2023-02-15T00:19:18;4.50;;;2.67;;
67816;SDS011;54614;47.576;7.524;2023-02-15T00:21:46;3.08;;;2.75;;
67816;SDS011;54614;47.576;7.524;2023-02-15T00:24:14;3.90;;;2.72;;
67816;SDS011;54614;47.576;7.524;2023-02-15T00:26:42;5.80;;;2.92;;
67816;SDS011;54614;47.576;7.524;2023-02-15T00:29:09;3.75;;;2.45;;
67816;SDS011;54614;47.576;7.524;2023-02-15T00:31:36;3.63;;;2.63;;
67816;SDS011;54614;47.576;7.524;2023-02-15T00:34:06;4.32;;;2.60;;
67816;SDS011;54614;47.576;7.524;2023-02-15T00:36:43;5.63;;;2.80;;
67816;SDS011;54614;47.576;7.524;2023-02-15T00:39:10;4.45;;;2.78;;
67816;SDS011;54614;47.576;7.524;2023-02-15T00:41:36;2.95;;;2.47;;
67816;SDS011;54614;47.576;7.524;2023-02-15T00:44:03;4.07;;;2.60;;
67816;SDS011;54614;47.576;7.524;2023-02-15T00:46:30;3.47;;;2.78;;
67816;SDS011;54614;47.576;7.524;2023-02-15T00:48:56;5.15;;;2.70;;
67816;SDS011;54614;47.576;7.524;2023-02-15T00:51:22;2.60;;;2.40;;
67816;SDS011;54614;47.576;7.524;2023-02-15T00:53:49;4.07;;;2.70;;
67816;SDS011;54614;47.576;7.524;2023-02-15T00:56:16;3.58;;;2.60;;
67816;SDS011;54614;47.576;7.524;2023-02-15T00:58:42;4.07;;;2.45;;
67816;SDS011;54614;47.576;7.524;2023-02-15T01:01:09;5.35;;;2.45;;
67816;SDS011;54614;47.576;7.524;2023-02-15T01:03:41;4.07;;;2.47;;
67816;SDS011;54614;47.576;7.524;2023-02-15T01:06:07;4.45;;;2.30;;
67816;SDS011;54614;47.576;7.524;2023-02-15T01:08:33;3.05;;;2.30;;
67816;SDS011;54614;47.576;7.524;2023-02-15T01:11:06;3.65;;;2.58;;
67816;SDS011;54614;47.576;7.524;2023-02-15T01:13:38;3.55;;;2.33;;
67816;SDS011;54614;47.576;7.524;2023-02-15T01:16:04;3.75;;;2.35;;
67816;SDS011;54614;47.576;7.524;2023-02-15T01:18:31;4.07;;;2.50;;
67816;SDS011;54614;47.576;7.524;2023-02-15T01:20:58;5.30;;;2.70;;
67816;SDS011;54614;47.576;7.524;2023-02-15T01:23:23;4.82;;;2.55;;
67816;SDS011;54614;47.576;7.524;2023-02-15T01:25:49;5.63;;;2.63;;
67816;SDS011;54614;47.576;7.524;2023-02-15T01:28:15;4.30;;;2.60;;
67816;SDS011;54614;47.576;7.524;2023-02-15T01:30:41;4.03;;;2.53;;
67816;SDS011;54614;47.576;7.524;2023-02-15T01:33:07;3.33;;;2.75;;
67816;SDS011;54614;47.576;7.524;2023-02-15T01:35:42;3.97;;;2.40;;
67816;SDS011;54614;47.576;7.524;2023-02-15T01:38:10;3.90;;;2.58;;
67816;SDS011;54614;47.576;7.524;2023-02-15T01:40:37;2.60;;;2.40;;
67816;SDS011;54614;47.576;7.524;2023-02-15T01:43:07;2.63;;;2.30;;
67816;SDS011;54614;47.576;7.524;2023-02-15T01:45:37;4.53;;;2.53;;
67816;SDS011;54614;47.576;7.524;2023-02-15T01:48:20;4.40;;;2.70;;
67816;SDS011;54614;47.576;7.524;2023-02-15T01:50:52;2.75;;;2.55;;
67816;SDS011;54614;47.576;7.524;2023-02-15T01:53:30;2.70;;;2.50;;
67816;SDS011;54614;47.576;7.524;2023-02-15T01:56:26;2.60;;;2.40;;
67816;SDS011;54614;47.576;7.524;2023-02-15T01:58:55;2.53;;;2.30;;
67816;SDS011;54614;47.576;7.524;2023-02-15T02:01:27;2.78;;;2.50;;
67816;SDS011;54614;47.576;7.524;2023-02-15T02:06:42;2.80;;;2.60;;
67816;SDS011;54614;47.576;7.524;2023-02-15T02:09:13;2.70;;;2.50;;
67816;SDS011;54614;47.576;7.524;2023-02-15T02:11:40;3.53;;;2.60;;
67816;SDS011;54614;47.576;7.524;2023-02-15T02:14:08;2.78;;;2.40;;
67816;SDS011;54614;47.576;7.524;2023-02-15T02:34:46;2.67;;;2.47;;
67816;SDS011;54614;47.576;7.524;2023-02-15T02:43:11;3.05;;;2.30;;
67816;SDS011;54614;47.576;7.524;2023-02-15T02:45:52;2.60;;;2.40;;
67816;SDS011;54614;47.576;7.524;2023-02-15T02:48:26;3.42;;;2.60;;
67816;SDS011;54614;47.576;7.524;2023-02-15T02:50:57;3.15;;;2.15;;
67816;SDS011;54614;47.576;7.524;2023-02-15T02:53:23;2.60;;;2.40;;
67816;SDS011;54614;47.576;7.524;2023-02-15T02:55:54;4.65;;;2.50;;
67816;SDS011;54614;47.576;7.524;2023-02-15T03:06:11;2.67;;;2.35;;
67816;SDS011;54614;47.576;7.524;2023-02-15T03:08:48;2.95;;;2.53;;
67816;SDS011;54614;47.576;7.524;2023-02-15T03:11:30;2.92;;;2.60;;
67816;SDS011;54614;47.576;7.524;2023-02-15T03:13:56;2.95;;;2.58;;
67816;SDS011;54614;47.576;7.524;2023-02-15T03:16:23;2.70;;;2.50;;
67816;SDS011;54614;47.576;7.524;2023-02-15T03:18:55;3.03;;;2.60;;
67816;SDS011;54614;47.576;7.524;2023-02-15T03:21:32;3.70;;;2.40;;
67816;SDS011;54614;47.576;7.524;2023-02-15T03:24:20;2.85;;;2.65;;
67816;SDS011;54614;47.576;7.524;2023-02-15T03:26:51;3.08;;;2.78;;
67816;SDS011;54614;47.576;7.524;2023-02-15T03:29:20;3.33;;;2.60;;
67816;SDS011;54614;47.576;7.524;2023-02-15T03:31:56;2.58;;;2.35;;
67816;SDS011;54614;47.576;7.524;2023-02-15T03:34:28;5.25;;;2.58;;
67816;SDS011;54614;47.576;7.524;2023-02-15T03:40:10;3.63;;;2.50;;
67816;SDS011;54614;47.576;7.524;2023-02-15T03:43:37;5.47;;;2.63;;
67816;SDS011;54614;47.576;7.524;2023-02-15T03:48:52;3.47;;;2.75;;
67816;SDS011;54614;47.576;7.524;2023-02-15T03:51:46;3.10;;;2.77;;
67816;SDS011;54614;47.576;7.524;2023-02-15T03:54:17;3.47;;;2.78;;
67816;SDS011;54614;47.576;7.524;2023-02-15T03:57:09;2.80;;;2.60;;
67816;SDS011;54614;47.576;7.524;2023-02-15T04:00:11;3.53;;;2.80;;
67816;SDS011;54614;47.576;7.524;2023-02-15T04:05:41;3.17;;;2.72;;
67816;SDS011;54614;47.576;7.524;2023-02-15T04:08:09;2.80;;;2.50;;
67816;SDS011;54614;47.576;7.524;2023-02-15T04:10:36;4.82;;;2.60;;
67816;SDS011;54614;47.576;7.524;2023-02-15T04:13:24;3.03;;;2.70;;
67816;SDS011;54614;47.576;7.524;2023-02-15T04:15:56;3.10;;;2.73;;
67816;SDS011;54614;47.576;7.524;2023-02-15T04:18:29;3.65;;;2.63;;
67816;SDS011;54614;47.576;7.524;2023-02-15T04:21:18;3.55;;;2.45;;
67816;SDS011;54614;47.576;7.524;2023-02-15T04:24:05;3.15;;;2.70;;
67816;SDS011;54614;47.576;7.524;2023-02-15T04:26:50;3.45;;;2.67;;
67816;SDS011;54614;47.576;7.524;2023-02-15T04:29:19;4.68;;;2.70;;
67816;SDS011;54614;47.576;7.524;2023-02-15T04:31:47;3.30;;;2.67;;
67816;SDS011;54614;47.576;7.524;2023-02-15T04:34:13;2.93;;;2.70;;
67816;SDS011;54614;47.576;7.524;2023-02-15T04:36:40;3.90;;;2.60;;
67816;SDS011;54614;47.576;7.524;2023-02-15T04:39:07;2.93;;;2.63;;
67816;SDS011;54614;47.576;7.524;2023-02-15T04:41:34;3.20;;;2.90;;
67816;SDS011;54614;47.576;7.524;2023-02-15T04:44:00;5.87;;;2.77;;
67816;SDS011;54614;47.576;7.524;2023-02-15T04:46:27;3.00;;;2.70;;
67816;SDS011;54614;47.576;7.524;2023-02-15T04:48:53;3.10;;;2.80;;
67816;SDS011;54614;47.576;7.524;2023-02-15T04:51:20;3.20;;;2.60;;
67816;SDS011;54614;47.576;7.524;2023-02-15T04:53:46;2.80;;;2.60;;
67816;SDS011;54614;47.576;7.524;2023-02-15T04:56:12;3.28;;;2.97;;
67816;SDS011;54614;47.576;7.524;2023-02-15T04:58:38;2.93;;;2.73;;
67816;SDS011;54614;47.576;7.524;2023-02-15T05:01:06;3.13;;;2.83;;
67816;SDS011;54614;47.576;7.524;2023-02-15T05:03:35;4.25;;;2.80;;
67816;SDS011;54614;47.576;7.524;2023-02-15T05:06:01;4.10;;;2.90;;
67816;SDS011;54614;47.576;7.524;2023-02-15T05:08:29;3.33;;;2.88;;
67816;SDS011;54614;47.576;7.524;2023-02-15T05:10:55;2.93;;;2.63;;
67816;SDS011;54614;47.576;7.524;2023-02-15T05:13:21;5.50;;;3.10;;
67816;SDS011;54614;47.576;7.524;2023-02-15T05:15:48;7.32;;;3.20;;
67816;SDS011;54614;47.576;7.524;2023-02-15T05:18:18;3.20;;;2.85;;
67816;SDS011;54614;47.576;7.524;2023-02-15T05:20:46;3.17;;;2.70;;
67816;SDS011;54614;47.576;7.524;2023-02-15T05:23:13;4.65;;;3.25;;
67816;SDS011;54614;47.576;7.524;2023-02-15T05:25:39;5.20;;;2.70;;
67816;SDS011;54614;47.576;7.524;2023-02-15T05:28:25;3.40;;;3.10;;
67816;SDS011;54614;47.576;7.524;2023-02-15T05:31:10;4.77;;;3.10;;
67816;SDS011;54614;47.576;7.524;2023-02-15T05:33:42;3.40;;;3.10;;
67816;SDS011;54614;47.576;7.524;2023-02-15T05:36:09;3.00;;;2.78;;
67816;SDS011;54614;47.576;7.524;2023-02-15T05:38:36;4.17;;;2.90;;
67816;SDS011;54614;47.576;7.524;2023-02-15T05:41:03;3.13;;;2.83;;
67816;SDS011;54614;47.576;7.524;2023-02-15T05:43:30;3.60;;;2.97;;
67816;SDS011;54614;47.576;7.524;2023-02-15T05:45:57;3.92;;;2.53;;
67816;SDS011;54614;47.576;7.524;2023-02-15T05:48:24;4.47;;;3.00;;
67816;SDS011;54614;47.576;7.524;2023-02-15T05:51:04;3.40;;;3.10;;
67816;SDS011;54614;47.576;7.524;2023-02-15T05:53:40;3.10;;;2.80;;
67816;SDS011;54614;47.576;7.524;2023-02-15T05:56:08;4.73;;;2.90;;
67816;SDS011;54614;47.576;7.524;2023-02-15T05:58:37;3.17;;;2.80;;
67816;SDS011;54614;47.576;7.524;2023-02-15T06:03:38;3.50;;;3.20;;
67816;SDS011;54614;47.576;7.524;2023-02-15T06:06:04;4.00;;;3.60;;
67816;SDS011;54614;47.576;7.524;2023-02-15T06:08:31;4.53;;;3.72;;
67816;SDS011;54614;47.576;7.524;2023-02-15T06:10:58;4.97;;;4.13;;
67816;SDS011;54614;47.576;7.524;2023-02-15T06:13:24;5.33;;;4.10;;
67816;SDS011;54614;47.576;7.524;2023-02-15T06:15:49;6.00;;;3.93;;
67816;SDS011;54614;47.576;7.524;2023-02-15T06:18:15;5.57;;;4.33;;
67816;SDS011;54614;47.576;7.524;2023-02-15T06:20:41;3.97;;;3.58;;
67816;SDS011;54614;47.576;7.524;2023-02-15T06:23:10;4.50;;;4.10;;
67816;SDS011;54614;47.576;7.524;2023-02-15T06:25:35;4.53;;;3.63;;
67816;SDS011;54614;47.576;7.524;2023-02-15T06:28:01;4.40;;;3.93;;
67816;SDS011;54614;47.576;7.524;2023-02-15T06:30:27;4.20;;;3.80;;
67816;SDS011;54614;47.576;7.524;2023-02-15T06:32:53;4.70;;;3.70;;
67816;SDS011;54614;47.576;7.524;2023-02-15T06:35:19;4.43;;;3.60;;
67816;SDS011;54614;47.576;7.524;2023-02-15T06:37:45;6.60;;;3.80;;
67816;SDS011;54614;47.576;7.524;2023-02-15T06:40:11;5.90;;;3.47;;
67816;SDS011;54614;47.576;7.524;2023-02-15T06:42:37;7.10;;;3.70;;
67816;SDS011;54614;47.576;7.524;2023-02-15T06:45:04;6.87;;;3.17;;
67816;SDS011;54614;47.576;7.524;2023-02-15T06:47:30;10.63;;;3.60;;
67816;SDS011;54614;47.576;7.524;2023-02-15T06:49:56;3.70;;;3.37;;
67816;SDS011;54614;47.576;7.524;2023-02-15T06:52:22;4.93;;;3.33;;
67816;SDS011;54614;47.576;7.524;2023-02-15T06:54:48;4.70;;;3.30;;
67816;SDS011;54614;47.576;7.524;2023-02-15T06:57:14;5.25;;;3.60;;
67816;SDS011;54614;47.576;7.524;2023-02-15T06:59:40;5.10;;;3.50;;
67816;SDS011;54614;47.576;7.524;2023-02-15T07:02:07;5.05;;;3.53;;
67816;SDS011;54614;47.576;7.524;2023-02-15T07:04:36;4.13;;;3.70;;
67816;SDS011;54614;47.576;7.524;2023-02-15T07:07:02;4.32;;;3.30;;
67816;SDS011;54614;47.576;7.524;2023-02-15T07:09:28;5.20;;;3.42;;
67816;SDS011;54614;47.576;7.524;2023-02-15T07:11:54;5.65;;;3.42;;
67816;SDS011;54614;47.576;7.524;2023-02-15T07:14:39;4.82;;;3.63;;
67816;SDS011;54614;47.576;7.524;2023-02-15T07:17:05;3.95;;;3.47;;
67816;SDS011;54614;47.576;7.524;2023-02-15T07:19:31;4.00;;;3.60;;
67816;SDS011;54614;47.576;7.524;2023-02-15T07:21:57;4.82;;;3.20;;
67816;SDS011;54614;47.576;7.524;2023-02-15T07:24:23;3.45;;;3.15;;
67816;SDS011;54614;47.576;7.524;2023-02-15T07:26:49;4.10;;;3.30;;
67816;SDS011;54614;47.576;7.524;2023-02-15T07:29:15;4.95;;;3.38;;
67816;SDS011;54614;47.576;7.524;2023-02-15T07:31:41;4.43;;;3.30;;
67816;SDS011;54614;47.576;7.524;2023-02-15T07:34:10;4.72;;;3.22;;
67816;SDS011;54614;47.576;7.524;2023-02-15T07:36:36;5.80;;;3.30;;
67816;SDS011;54614;47.576;7.524;2023-02-15T07:39:02;4.97;;;3.25;;
67816;SDS011;54614;47.576;7.524;2023-02-15T07:41:28;4.47;;;3.10;;
67816;SDS011;54614;47.576;7.524;2023-02-15T07:43:54;13.20;;;3.50;;
67816;SDS011;54614;47.576;7.524;2023-02-15T07:46:20;11.73;;;3.45;;
67816;SDS011;54614;47.576;7.524;2023-02-15T07:48:46;9.60;;;3.47;;
67816;SDS011;54614;47.576;7.524;2023-02-15T07:51:13;11.88;;;3.00;;
67816;SDS011;54614;47.576;7.524;2023-02-15T07:53:39;11.70;;;3.28;;
67816;SDS011;54614;47.576;7.524;2023-02-15T07:56:07;9.88;;;3.33;;
67816;SDS011;54614;47.576;7.524;2023-02-15T07:58:37;5.75;;;3.10;;
67816;SDS011;54614;47.576;7.524;2023-02-15T08:01:17;7.22;;;3.50;;
67816;SDS011;54614;47.576;7.524;2023-02-15T08:03:57;9.25;;;3.63;;
67816;SDS011;54614;47.576;7.524;2023-02-15T08:06:25;5.50;;;3.22;;
67816;SDS011;54614;47.576;7.524;2023-02-15T08:08:53;5.47;;;3.28;;
67816;SDS011;54614;47.576;7.524;2023-02-15T08:11:23;7.80;;;2.85;;
67816;SDS011;54614;47.576;7.524;2023-02-15T08:14:01;9.23;;;3.00;;
67816;SDS011;54614;47.576;7.524;2023-02-15T08:16:44;8.10;;;3.35;;
67816;SDS011;54614;47.576;7.524;2023-02-15T08:19:16;9.88;;;3.00;;
67816;SDS011;54614;47.576;7.524;2023-02-15T08:21:46;5.78;;;3.05;;
67816;SDS011;54614;47.576;7.524;2023-02-15T08:24:19;4.32;;;3.20;;
67816;SDS011;54614;47.576;7.524;2023-02-15T08:26:47;6.32;;;3.33;;
67816;SDS011;54614;47.576;7.524;2023-02-15T08:29:15;6.88;;;2.95;;
67816;SDS011;54614;47.576;7.524;2023-02-15T08:31:43;6.57;;;3.10;;
67816;SDS011;54614;47.576;7.524;2023-02-15T08:34:10;6.72;;;2.92;;
67816;SDS011;54614;47.576;7.524;2023-02-15T08:36:41;6.35;;;3.00;;
67816;SDS011;54614;47.576;7.524;2023-02-15T08:39:10;10.25;;;3.00;;
67816;SDS011;54614;47.576;7.524;2023-02-15T08:41:37;3.40;;;2.80;;
67816;SDS011;54614;47.576;7.524;2023-02-15T08:44:06;5.47;;;3.10;;
67816;SDS011;54614;47.576;7.524;2023-02-15T08:46:35;8.50;;;3.10;;
67816;SDS011;54614;47.576;7.524;2023-02-15T08:49:04;8.32;;;2.85;;
67816;SDS011;54614;47.576;7.524;2023-02-15T08:51:35;4.97;;;2.72;;
67816;SDS011;54614;47.576;7.524;2023-02-15T08:54:08;3.92;;;2.90;;
67816;SDS011;54614;47.576;7.524;2023-02-15T08:56:38;8.05;;;3.00;;
67816;SDS011;54614;47.576;7.524;2023-02-15T08:59:07;5.03;;;2.75;;
67816;SDS011;54614;47.576;7.524;2023-02-15T09:01:44;4.50;;;2.92;;
67816;SDS011;54614;47.576;7.524;2023-02-15T09:04:12;7.95;;;3.10;;
67816;SDS011;54614;47.576;7.524;2023-02-15T09:06:38;6.35;;;2.83;;
67816;SDS011;54614;47.576;7.524;2023-02-15T09:09:06;3.72;;;2.60;;
67816;SDS011;54614;47.576;7.524;2023-02-15T09:11:34;4.25;;;2.80;;
67816;SDS011;54614;47.576;7.524;2023-02-15T09:14:04;5.55;;;3.00;;
67816;SDS011;54614;47.576;7.524;2023-02-15T09:16:38;3.30;;;2.90;;
67816;SDS011;54614;47.576;7.524;2023-02-15T09:19:05;4.60;;;2.90;;
67816;SDS011;54614;47.576;7.524;2023-02-15T09:21:33;3.97;;;3.00;;
67816;SDS011;54614;47.576;7.524;2023-02-15T09:24:03;3.35;;;2.63;;
67816;SDS011;54614;47.576;7.524;2023-02-15T09:26:32;6.45;;;2.88;;
67816;SDS011;54614;47.576;7.524;2023-02-15T09:29:02;4.78;;;2.92;;
67816;SDS011;54614;47.576;7.524;2023-02-15T09:31:39;4.60;;;2.80;;
67816;SDS011;54614;47.576;7.524;2023-02-15T09:34:09;3.45;;;2.60;;
67816;SDS011;54614;47.576;7.524;2023-02-15T09:36:41;10.00;;;2.90;;
67816;SDS011;54614;47.576;7.524;2023-02-15T09:44:47;5.38;;;2.72;;
67816;SDS011;54614;47.576;7.524;2023-02-15T09:51:05;4.43;;;2.90;;
67816;SDS011;54614;47.576;7.524;2023-02-15T09:56:42;3.63;;;2.60;;
67816;SDS011;54614;47.576;7.524;2023-02-15T10:11:22;3.67;;;2.58;;
67816;SDS011;54614;47.576;7.524;2023-02-15T10:17:17;2.60;;;2.40;;
67816;SDS011;54614;47.576;7.524;2023-02-15T10:26:44;4.53;;;2.70;;
67816;SDS011;54614;47.576;7.524;2023-02-15T10:29:35;3.08;;;2.65;;
67816;SDS011;54614;47.576;7.524;2023-02-15T10:32:14;3.13;;;2.67;;
67816;SDS011;54614;47.576;7.524;2023-02-15T10:43:37;3.97;;;2.60;;
67816;SDS011;54614;47.576;7.524;2023-02-15T11:02:02;3.42;;;2.50;;
67816;SDS011;54614;47.576;7.524;2023-02-15T11:05:29;6.10;;;2.80;;
67816;SDS011;54614;47.576;7.524;2023-02-15T11:08:15;4.35;;;2.63;;
67816;SDS011;54614;47.576;7.524;2023-02-15T11:13:26;3.05;;;2.22;;
67816;SDS011;54614;47.576;7.524;2023-02-15T11:16:43;5.40;;;2.83;;
67816;SDS011;54614;47.576;7.524;2023-02-15T11:19:01;3.45;;;2.50;;
67816;SDS011;54614;47.576;7.524;2023-02-15T11:21:49;2.97;;;2.60;;
67816;SDS011;54614;47.576;7.524;2023-02-15T11:24:20;2.78;;;2.38;;
67816;SDS011;54614;47.576;7.524;2023-02-15T11:32:30;3.85;;;2.50;;
67816;SDS011;54614;47.576;7.524;2023-02-15T11:38:12;3.47;;;2.58;;
67816;SDS011;54614;47.576;7.524;2023-02-15T11:40:48;2.47;;;2.13;;
67816;SDS011;54614;47.576;7.524;2023-02-15T11:46:10;3.55;;;2.55;;
67816;SDS011;54614;47.576;7.524;2023-02-15T11:48:37;3.20;;;2.40;;
67816;SDS011;54614;47.576;7.524;2023-02-15T11:51:04;3.25;;;2.53;;
67816;SDS011;54614;47.576;7.524;2023-02-15T11:53:32;3.53;;;2.50;;
67816;SDS011;54614;47.576;7.524;2023-02-15T11:56:02;3.00;;;2.20;;
67816;SDS011;54614;47.576;7.524;2023-02-15T11:58:33;2.97;;;2.40;;
67816;SDS011;54614;47.576;7.524;2023-02-15T12:03:51;3.60;;;2.20;;
67816;SDS011;54614;47.576;7.524;2023-02-15T12:06:37;4.30;;;2.60;;
67816;SDS011;54614;47.576;7.524;2023-02-15T12:09:20;3.38;;;2.35;;
67816;SDS011;54614;47.576;7.524;2023-02-15T12:12:30;3.88;;;2.50;;
67816;SDS011;54614;47.576;7.524;2023-02-15T12:15:01;2.50;;;2.30;;
67816;SDS011;54614;47.576;7.524;2023-02-15T12:17:33;3.53;;;2.60;;
67816;SDS011;54614;47.576;7.524;2023-02-15T12:20:00;2.75;;;2.38;;
67816;SDS011;54614;47.576;7.524;2023-02-15T12:22:32;3.13;;;2.47;;
67816;SDS011;54614;47.576;7.524;2023-02-15T12:25:04;4.78;;;2.50;;
67816;SDS011;54614;47.576;7.524;2023-02-15T12:28:30;7.18;;;2.35;;
67816;SDS011;54614;47.576;7.524;2023-02-15T12:31:00;6.75;;;2.50;;
67816;SDS011;54614;47.576;7.524;2023-02-15T12:33:38;3.80;;;2.50;;
67816;SDS011;54614;47.576;7.524;2023-02-15T12:36:26;5.32;;;2.45;;
67816;SDS011;54614;47.576;7.524;2023-02-15T12:41:38;4.20;;;2.30;;
67816;SDS011;54614;47.576;7.524;2023-02-15T12:44:24;5.60;;;2.45;;
67816;SDS011;54614;47.576;7.524;2023-02-15T12:52:02;3.85;;;2.70;;
67816;SDS011;54614;47.576;7.524;2023-02-15T12:54:40;5.00;;;2.60;;
67816;SDS011;54614;47.576;7.524;2023-02-15T12:57:15;3.45;;;2.50;;
67816;SDS011;54614;47.576;7.524;2023-02-15T13:00:02;3.15;;;2.60;;
67816;SDS011;54614;47.576;7.524;2023-02-15T13:02:52;2.88;;;2.40;;
67816;SDS011;54614;47.576;7.524;2023-02-15T13:05:26;3.88;;;2.70;;
67816;SDS011;54614;47.576;7.524;2023-02-15T13:07:58;4.15;;;2.20;;
67816;SDS011;54614;47.576;7.524;2023-02-15T13:10:36;3.38;;;2.38;;
67816;SDS011;54614;47.576;7.524;2023-02-15T13:13:18;3.72;;;2.53;;
67816;SDS011;54614;47.576;7.524;2023-02-15T13:15:50;2.90;;;2.60;;
67816;SDS011;54614;47.576;7.524;2023-02-15T13:21:04;3.13;;;2.58;;
67816;SDS011;54614;47.576;7.524;2023-02-15T13:23:57;2.40;;;2.20;;
67816;SDS011;54614;47.576;7.524;2023-02-15T13:26:30;2.63;;;2.42;;
67816;SDS011;54614;47.576;7.524;2023-02-15T13:29:00;2.20;;;2.00;;
67816;SDS011;54614;47.576;7.524;2023-02-15T13:31:40;4.00;;;2.30;;
67816;SDS011;54614;47.576;7.524;2023-02-15T13:39:31;3.65;;;2.30;;
67816;SDS011;54614;47.576;7.524;2023-02-15T13:42:20;3.95;;;2.30;;
67816;SDS011;54614;47.576;7.524;2023-02-15T13:48:06;3.00;;;2.47;;
67816;SDS011;54614;47.576;7.524;2023-02-15T14:02:43;2.55;;;2.30;;
67816;SDS011;54614;47.576;7.524;2023-02-15T14:14:49;2.70;;;2.10;;
67816;SDS011;54614;47.576;7.524;2023-02-15T14:17:53;2.17;;;1.92;;
67816;SDS011;54614;47.576;7.524;2023-02-15T14:29:59;2.38;;;2.10;;
67816;SDS011;54614;47.576;7.524;2023-02-15T14:32:33;2.40;;;2.20;;
67816;SDS011;54614;47.576;7.524;2023-02-15T14:35:30;2.42;;;2.22;;
67816;SDS011;54614;47.576;7.524;2023-02-15T14:41:04;2.40;;;2.20;;
67816;SDS011;54614;47.576;7.524;2023-02-15T14:46:19;2.90;;;2.13;;
67816;SDS011;54614;47.576;7.524;2023-02-15T14:49:12;2.25;;;2.05;;
67816;SDS011;54614;47.576;7.524;2023-02-15T14:57:32;2.00;;;1.90;;
67816;SDS011;54614;47.576;7.524;2023-02-15T15:02:26;2.35;;;2.15;;
67816;SDS011;54614;47.576;7.524;2023-02-15T15:07:56;3.15;;;2.08;;
67816;SDS011;54614;47.576;7.524;2023-02-15T15:12:51;2.88;;;2.20;;
67816;SDS011;54614;47.576;7.524;2023-02-15T15:20:44;3.83;;;2.55;;
67816;SDS011;54614;47.576;7.524;2023-02-15T15:25:49;2.10;;;1.92;;
67816;SDS011;54614;47.576;7.524;2023-02-15T15:31:25;2.08;;;1.92;;
67816;SDS011;54614;47.576;7.524;2023-02-15T15:34:24;2.78;;;2.20;;
67816;SDS011;54614;47.576;7.524;2023-02-15T15:40:41;2.90;;;1.90;;
67816;SDS011;54614;47.576;7.524;2023-02-15T15:46:37;2.28;;;2.00;;
67816;SDS011;54614;47.576;7.524;2023-02-15T15:49:36;2.28;;;2.08;;
67816;SDS011;54614;47.576;7.524;2023-02-15T15:52:20;3.13;;;2.35;;
67816;SDS011;54614;47.576;7.524;2023-02-15T15:54:48;2.67;;;2.45;;
67816;SDS011;54614;47.576;7.524;2023-02-15T15:57:25;2.30;;;2.10;;
67816;SDS011;54614;47.576;7.524;2023-02-15T15:59:59;2.25;;;1.98;;
67816;SDS011;54614;47.576;7.524;2023-02-15T16:02:25;2.63;;;2.28;;
67816;SDS011;54614;47.576;7.524;2023-02-15T16:04:51;3.42;;;2.10;;
67816;SDS011;54614;47.576;7.524;2023-02-15T16:09:59;5.97;;;2.10;;
67816;SDS011;54614;47.576;7.524;2023-02-15T16:12:29;2.75;;;1.95;;
67816;SDS011;54614;47.576;7.524;2023-02-15T16:15:00;2.42;;;2.08;;
67816;SDS011;54614;47.576;7.524;2023-02-15T16:17:44;2.35;;;2.10;;
67816;SDS011;54614;47.576;7.524;2023-02-15T16:20:20;2.08;;;1.98;;
67816;SDS011;54614;47.576;7.524;2023-02-15T16:29:12;2.72;;;2.30;;
67816;SDS011;54614;47.576;7.524;2023-02-15T16:31:41;2.53;;;2.30;;
67816;SDS011;54614;47.576;7.524;2023-02-15T16:34:09;4.75;;;2.17;;
67816;SDS011;54614;47.576;7.524;2023-02-15T16:36:42;2.53;;;2.15;;
67816;SDS011;54614;47.576;7.524;2023-02-15T16:39:12;2.30;;;2.10;;
67816;SDS011;54614;47.576;7.524;2023-02-15T16:41:45;2.92;;;2.20;;
67816;SDS011;54614;47.576;7.524;2023-02-15T16:44:17;2.25;;;2.05;;
67816;SDS011;54614;47.576;7.524;2023-02-15T16:46:49;3.40;;;2.10;;
67816;SDS011;54614;47.576;7.524;2023-02-15T16:49:19;3.05;;;2.00;;
67816;SDS011;54614;47.576;7.524;2023-02-15T16:51:54;4.82;;;2.22;;
67816;SDS011;54614;47.576;7.524;2023-02-15T16:54:31;3.20;;;2.38;;
67816;SDS011;54614;47.576;7.524;2023-02-15T16:56:58;4.78;;;2.28;;
67816;SDS011;54614;47.576;7.524;2023-02-15T16:59:33;3.33;;;2.40;;
67816;SDS011;54614;47.576;7.524;2023-02-15T17:05:01;7.57;;;2.60;;
67816;SDS011;54614;47.576;7.524;2023-02-15T17:08:18;6.60;;;2.72;;
67816;SDS011;54614;47.576;7.524;2023-02-15T17:11:08;3.95;;;2.50;;
67816;SDS011;54614;47.576;7.524;2023-02-15T17:13:38;6.18;;;2.85;;
67816;SDS011;54614;47.576;7.524;2023-02-15T17:18:58;7.53;;;2.80;;
67816;SDS011;54614;47.576;7.524;2023-02-15T17:21:32;4.38;;;2.50;;
67816;SDS011;54614;47.576;7.524;2023-02-15T17:24:06;5.03;;;2.80;;
67816;SDS011;54614;47.576;7.524;2023-02-15T17:26:48;3.88;;;2.65;;
67816;SDS011;54614;47.576;7.524;2023-02-15T17:29:33;5.50;;;3.08;;
67816;SDS011;54614;47.576;7.524;2023-02-15T17:32:12;4.82;;;2.72;;
67816;SDS011;54614;47.576;7.524;2023-02-15T17:35:18;7.22;;;3.10;;
67816;SDS011;54614;47.576;7.524;2023-02-15T17:37:46;7.97;;;2.90;;
67816;SDS011;54614;47.576;7.524;2023-02-15T17:40:20;4.45;;;2.75;;
67816;SDS011;54614;47.576;7.524;2023-02-15T17:42:55;4.75;;;3.05;;
67816;SDS011;54614;47.576;7.524;2023-02-15T17:45:22;9.35;;;3.10;;
67816;SDS011;54614;47.576;7.524;2023-02-15T17:47:57;6.78;;;3.00;;
67816;SDS011;54614;47.576;7.524;2023-02-15T17:50:26;5.70;;;3.35;;
67816;SDS011;54614;47.576;7.524;2023-02-15T17:52:53;12.02;;;3.90;;
67816;SDS011;54614;47.576;7.524;2023-02-15T17:55:22;8.05;;;3.28;;
67816;SDS011;54614;47.576;7.524;2023-02-15T17:58:09;10.80;;;3.50;;
67816;SDS011;54614;47.576;7.524;2023-02-15T18:00:47;9.10;;;3.60;;
67816;SDS011;54614;47.576;7.524;2023-02-15T18:03:38;11.00;;;3.83;;
67816;SDS011;54614;47.576;7.524;2023-02-15T18:06:27;10.60;;;3.83;;
67816;SDS011;54614;47.576;7.524;2023-02-15T18:09:13;8.65;;;3.45;;
67816;SDS011;54614;47.576;7.524;2023-02-15T18:12:00;11.38;;;3.70;;
67816;SDS011;54614;47.576;7.524;2023-02-15T18:14:26;15.32;;;3.80;;
67816;SDS011;54614;47.576;7.524;2023-02-15T18:16:52;13.57;;;4.97;;
67816;SDS011;54614;47.576;7.524;2023-02-15T18:19:28;7.97;;;4.25;;
67816;SDS011;54614;47.576;7.524;2023-02-15T18:21:54;10.55;;;4.70;;
67816;SDS011;54614;47.576;7.524;2023-02-15T18:24:22;10.30;;;4.78;;
67816;SDS011;54614;47.576;7.524;2023-02-15T18:26:51;13.93;;;5.47;;
67816;SDS011;54614;47.576;7.524;2023-02-15T18:29:18;20.00;;;5.55;;
67816;SDS011;54614;47.576;7.524;2023-02-15T18:31:45;13.73;;;5.20;;
67816;SDS011;54614;47.576;7.524;2023-02-15T18:34:22;15.27;;;6.00;;
67816;SDS011;54614;47.576;7.524;2023-02-15T18:36:57;15.88;;;5.57;;
67816;SDS011;54614;47.576;7.524;2023-02-15T18:42:13;12.43;;;6.57;;
67816;SDS011;54614;47.576;7.524;2023-02-15T18:44:53;13.75;;;6.35;;
67816;SDS011;54614;47.576;7.524;2023-02-15T18:47:26;12.38;;;6.70;;
67816;SDS011;54614;47.576;7.524;2023-02-15T18:49:53;14.05;;;6.57;;
67816;SDS011;54614;47.576;7.524;2023-02-15T18:52:22;13.10;;;6.18;;
67816;SDS011;54614;47.576;7.524;2023-02-15T18:54:57;14.48;;;6.13;;
67816;SDS011;54614;47.576;7.524;2023-02-15T18:57:26;12.43;;;5.82;;
67816;SDS011;54614;47.576;7.524;2023-02-15T18:59:54;14.55;;;6.22;;
67816;SDS011;54614;47.576;7.524;2023-02-15T19:02:20;10.27;;;5.85;;
67816;SDS011;54614;47.576;7.524;2023-02-15T19:04:46;10.88;;;6.25;;
67816;SDS011;54614;47.576;7.524;2023-02-15T19:07:16;21.20;;;7.03;;